ANA208 LIMC-RJTT
Flight info
| Callsign | ANA208 |
|---|---|
| Flight time | N/A |
| Altitude | 35000 |
| Route | IRKED7AXOSKOR6Z/35L OSKOR DCT NOBMI DCT BABAG DCT DOBOT DCT VELIP DCT LEVTA DCT DINRO N743 UDROS UM859 BAMUP/N0492F370 UM859 KARDE UN644 ROLIN N11 BARUS DCT BARAD DCT SUBUT DCT METKA B476 TIMGA A480 OTBOR/K0902F370 N147 GENGA/K0902F390 DCT SARIN/K0900S1190 A368 FKG W188 GOVSA W66 DKO W69 HUR B339 LADIX W34 VAPGU/K0924S1250 W100 ORAVA W201 UNSEK A326 DONVO G597 AGAVO/N0491F410 Y644 EGOBA Y697 LANAT Y71 XAC XACN |
| Aircraft | B789/H-SDE1E2E3FGHIJ2J3J4J5M1RWXY/LB1D1 |
Departure
| Time | N/A |
|---|---|
| Airport | Milan Malpensa International Airport (LIMC) |
Arrival
| Time | 2026-02-21 22:21 |
|---|---|
| Airport | Tokyo Haneda International Airport (RJTT) |
| Time | Latitude | Longitude | Altitude | Speed | Heading |
|---|---|---|---|---|---|
| 2026-02-21 21:36 | 35.67932 | 133.76175 | 41111 ft | 581 kts | 114° |
| 2026-02-21 21:36 | 35.66497 | 133.80805 | 41111 ft | 581 kts | 115° |
| 2026-02-21 21:36 | 35.63632 | 133.90024 | 41113 ft | 581 kts | 114° |
| 2026-02-21 21:37 | 35.60727 | 133.99345 | 41120 ft | 584 kts | 115° |
| 2026-02-21 21:37 | 35.57819 | 134.08644 | 41118 ft | 583 kts | 114° |
| 2026-02-21 21:38 | 35.54905 | 134.17933 | 41119 ft | 583 kts | 115° |
| 2026-02-21 21:38 | 35.51984 | 134.27214 | 41116 ft | 583 kts | 115° |
| 2026-02-21 21:39 | 35.49056 | 134.36490 | 41123 ft | 583 kts | 115° |
| 2026-02-21 21:39 | 35.46119 | 134.45763 | 41141 ft | 583 kts | 115° |
| 2026-02-21 21:40 | 35.43182 | 134.55011 | 41163 ft | 581 kts | 115° |
| 2026-02-21 21:40 | 35.40255 | 134.64191 | 41172 ft | 581 kts | 115° |
| 2026-02-21 21:41 | 35.37306 | 134.73418 | 41179 ft | 581 kts | 115° |
| 2026-02-21 21:41 | 35.34347 | 134.82647 | 41185 ft | 581 kts | 115° |
| 2026-02-21 21:42 | 35.31380 | 134.91869 | 41198 ft | 582 kts | 115° |
| 2026-02-21 21:42 | 35.28413 | 135.01068 | 41195 ft | 580 kts | 115° |
| 2026-02-21 21:43 | 35.25444 | 135.10240 | 41191 ft | 580 kts | 115° |
| 2026-02-21 21:43 | 35.22463 | 135.19422 | 41193 ft | 580 kts | 115° |
| 2026-02-21 21:44 | 35.19477 | 135.28591 | 41200 ft | 580 kts | 115° |
| 2026-02-21 21:44 | 35.16480 | 135.37766 | 41207 ft | 581 kts | 115° |
| 2026-02-21 21:45 | 35.13478 | 135.46933 | 41210 ft | 581 kts | 115° |
| 2026-02-21 21:45 | 35.10463 | 135.56107 | 41221 ft | 582 kts | 115° |
| 2026-02-21 21:46 | 35.07438 | 135.65284 | 41218 ft | 582 kts | 115° |
| 2026-02-21 21:46 | 35.04429 | 135.74383 | 41224 ft | 581 kts | 115° |
| 2026-02-21 21:47 | 35.01583 | 135.83637 | 41244 ft | 586 kts | 105° |
| 2026-02-21 21:47 | 34.99954 | 135.93365 | 41233 ft | 587 kts | 102° |
| 2026-02-21 21:48 | 34.98389 | 136.03145 | 41226 ft | 586 kts | 103° |
| 2026-02-21 21:48 | 34.96780 | 136.12897 | 41241 ft | 587 kts | 102° |
| 2026-02-21 21:49 | 34.95188 | 136.22676 | 41247 ft | 588 kts | 103° |
| 2026-02-21 21:49 | 34.93581 | 136.32370 | 41237 ft | 587 kts | 103° |
| 2026-02-21 21:50 | 34.91969 | 136.42128 | 41254 ft | 587 kts | 103° |
| 2026-02-21 21:50 | 34.90341 | 136.51874 | 41257 ft | 586 kts | 103° |
| 2026-02-21 21:51 | 34.88712 | 136.61608 | 41252 ft | 586 kts | 103° |
| 2026-02-21 21:51 | 34.87070 | 136.71350 | 41252 ft | 587 kts | 103° |
| 2026-02-21 21:52 | 34.85422 | 136.81089 | 41262 ft | 587 kts | 103° |
| 2026-02-21 21:52 | 34.83776 | 136.90768 | 41234 ft | 586 kts | 103° |
| 2026-02-21 21:53 | 34.82446 | 137.00568 | 41251 ft | 588 kts | 98° |
| 2026-02-21 21:53 | 34.81356 | 137.10428 | 41265 ft | 587 kts | 98° |
| 2026-02-21 21:54 | 34.80253 | 137.20254 | 41257 ft | 586 kts | 98° |
| 2026-02-21 21:54 | 34.79146 | 137.30097 | 41250 ft | 588 kts | 98° |
| 2026-02-21 21:55 | 34.78024 | 137.39959 | 41261 ft | 589 kts | 98° |
| 2026-02-21 21:55 | 34.77087 | 137.48169 | 41258 ft | 588 kts | 98° |
| 2026-02-21 21:56 | 34.75768 | 137.59611 | 41270 ft | 587 kts | 98° |
| 2026-02-21 21:56 | 34.74816 | 137.67844 | 41261 ft | 586 kts | 97° |
| 2026-02-21 21:57 | 34.73892 | 137.77703 | 41272 ft | 588 kts | 98° |
| 2026-02-21 21:57 | 34.72919 | 137.87575 | 41275 ft | 588 kts | 96° |
| 2026-02-21 21:58 | 34.71999 | 137.97394 | 41274 ft | 588 kts | 97° |
| 2026-02-21 21:58 | 34.71448 | 138.07292 | 41281 ft | 588 kts | 89° |
| 2026-02-21 21:59 | 34.71502 | 138.17242 | 41280 ft | 589 kts | 89° |
| 2026-02-21 21:59 | 34.71524 | 138.27211 | 41284 ft | 589 kts | 89° |
| 2026-02-21 22:00 | 34.71552 | 138.37189 | 41284 ft | 590 kts | 89° |
| 2026-02-21 22:00 | 34.71564 | 138.47000 | 41267 ft | 573 kts | 89° |
| 2026-02-21 22:01 | 34.71572 | 138.56597 | 41266 ft | 564 kts | 89° |
| 2026-02-21 22:01 | 34.71575 | 138.61394 | 40705 ft | 575 kts | 89° |
| 2026-02-21 22:01 | 34.71573 | 138.66300 | 39878 ft | 582 kts | 89° |
| 2026-02-21 22:02 | 34.71567 | 138.71232 | 39071 ft | 585 kts | 89° |
| 2026-02-21 22:02 | 34.71563 | 138.76182 | 38156 ft | 586 kts | 89° |
| 2026-02-21 22:02 | 34.71557 | 138.81135 | 37270 ft | 585 kts | 89° |
| 2026-02-21 22:02 | 34.71544 | 138.86081 | 36327 ft | 584 kts | 90° |
| 2026-02-21 22:03 | 34.71520 | 138.90882 | 36165 ft | 562 kts | 90° |
| 2026-02-21 22:03 | 34.71499 | 138.95555 | 36174 ft | 548 kts | 90° |
| 2026-02-21 22:03 | 34.71464 | 139.04961 | 35903 ft | 567 kts | 90° |
| 2026-02-21 22:04 | 34.71438 | 139.09791 | 34294 ft | 567 kts | 90° |
| 2026-02-21 22:04 | 34.71408 | 139.14515 | 32542 ft | 551 kts | 90° |
| 2026-02-21 22:04 | 34.71380 | 139.19109 | 30924 ft | 533 kts | 90° |
| 2026-02-21 22:04 | 34.71354 | 139.23554 | 29249 ft | 516 kts | 90° |
| 2026-02-21 22:05 | 34.71327 | 139.27777 | 27630 ft | 499 kts | 90° |
| 2026-02-21 22:05 | 34.71297 | 139.31935 | 26115 ft | 484 kts | 90° |
| 2026-02-21 22:05 | 34.71268 | 139.35972 | 24689 ft | 471 kts | 89° |
| 2026-02-21 22:05 | 34.71569 | 139.39876 | 23321 ft | 465 kts | 77° |
| 2026-02-21 22:06 | 34.72518 | 139.43661 | 21826 ft | 471 kts | 66° |
| 2026-02-21 22:06 | 34.74056 | 139.47193 | 20391 ft | 474 kts | 57° |
| 2026-02-21 22:06 | 34.75700 | 139.50581 | 19014 ft | 451 kts | 57° |
| 2026-02-21 22:06 | 34.77259 | 139.53756 | 17650 ft | 426 kts | 57° |
| 2026-02-21 22:07 | 34.78744 | 139.56782 | 16592 ft | 411 kts | 57° |
| 2026-02-21 22:07 | 34.80196 | 139.59763 | 15828 ft | 406 kts | 58° |
| 2026-02-21 22:07 | 34.81623 | 139.62701 | 15073 ft | 401 kts | 58° |
| 2026-02-21 22:07 | 34.83032 | 139.65597 | 14349 ft | 396 kts | 58° |
| 2026-02-21 22:08 | 34.84428 | 139.68467 | 13600 ft | 391 kts | 58° |
| 2026-02-21 22:08 | 34.85802 | 139.71296 | 12889 ft | 384 kts | 58° |
| 2026-02-21 22:08 | 34.87146 | 139.74067 | 12195 ft | 377 kts | 58° |
| 2026-02-21 22:08 | 34.88469 | 139.76795 | 11510 ft | 370 kts | 58° |
| 2026-02-21 22:09 | 34.89745 | 139.79429 | 11057 ft | 360 kts | 58° |
| 2026-02-21 22:09 | 34.90983 | 139.81989 | 10864 ft | 340 kts | 58° |
| 2026-02-21 22:09 | 34.92150 | 139.84402 | 10746 ft | 321 kts | 58° |
| 2026-02-21 22:09 | 34.93253 | 139.86681 | 10612 ft | 305 kts | 58° |
| 2026-02-21 22:10 | 34.94463 | 139.88703 | 10472 ft | 286 kts | 39° |
| 2026-02-21 22:10 | 34.96123 | 139.89930 | 10320 ft | 281 kts | 16° |
| 2026-02-21 22:10 | 34.98029 | 139.90498 | 10063 ft | 282 kts | 11° |
| 2026-02-21 22:10 | 34.99919 | 139.91040 | 9766 ft | 276 kts | 11° |
| 2026-02-21 22:11 | 35.01804 | 139.91572 | 9488 ft | 279 kts | 10° |
| 2026-02-21 22:11 | 35.03696 | 139.92103 | 9210 ft | 279 kts | 10° |
| 2026-02-21 22:11 | 35.05587 | 139.92636 | 8934 ft | 279 kts | 10° |
| 2026-02-21 22:11 | 35.07465 | 139.93167 | 8649 ft | 273 kts | 10° |
| 2026-02-21 22:12 | 35.09326 | 139.93693 | 8359 ft | 276 kts | 10° |
| 2026-02-21 22:12 | 35.11201 | 139.94222 | 8089 ft | 276 kts | 10° |
| 2026-02-21 22:12 | 35.13076 | 139.94752 | 7808 ft | 276 kts | 10° |
| 2026-02-21 22:12 | 35.14920 | 139.95273 | 7531 ft | 272 kts | 10° |
| 2026-02-21 22:13 | 35.16710 | 139.95782 | 7407 ft | 252 kts | 10° |
| 2026-02-21 22:13 | 35.18348 | 139.96248 | 7245 ft | 234 kts | 10° |
| 2026-02-21 22:13 | 35.19940 | 139.96696 | 6763 ft | 238 kts | 10° |
| 2026-02-21 22:13 | 35.21536 | 139.97142 | 6525 ft | 233 kts | 10° |
| 2026-02-21 22:14 | 35.23122 | 139.97594 | 6212 ft | 233 kts | 10° |
| 2026-02-21 22:14 | 35.24694 | 139.98029 | 5917 ft | 230 kts | 6° |
| 2026-02-21 22:14 | 35.26214 | 139.97796 | 5502 ft | 218 kts | 335° |
| 2026-02-21 22:14 | 35.27557 | 139.96974 | 5072 ft | 213 kts | 326° |
| 2026-02-21 22:15 | 35.28811 | 139.96087 | 5020 ft | 206 kts | 324° |
| 2026-02-21 22:15 | 35.30071 | 139.95196 | 5016 ft | 211 kts | 324° |
| 2026-02-21 22:15 | 35.31330 | 139.94308 | 5012 ft | 212 kts | 324° |
| 2026-02-21 22:15 | 35.32579 | 139.93430 | 4870 ft | 201 kts | 324° |
| 2026-02-21 22:16 | 35.33758 | 139.92601 | 4603 ft | 195 kts | 324° |
| 2026-02-21 22:16 | 35.34886 | 139.91804 | 4360 ft | 193 kts | 324° |
| 2026-02-21 22:16 | 35.36052 | 139.90984 | 4087 ft | 192 kts | 325° |
| 2026-02-21 22:16 | 35.37207 | 139.90173 | 3840 ft | 191 kts | 325° |
| 2026-02-21 22:17 | 35.38362 | 139.89356 | 3570 ft | 191 kts | 325° |
| 2026-02-21 22:17 | 35.39518 | 139.88546 | 3302 ft | 191 kts | 326° |
| 2026-02-21 22:17 | 35.40675 | 139.87732 | 3030 ft | 192 kts | 326° |
| 2026-02-21 22:17 | 35.41831 | 139.86913 | 2790 ft | 191 kts | 326° |
| 2026-02-21 22:18 | 35.42940 | 139.86129 | 2521 ft | 182 kts | 326° |
| 2026-02-21 22:18 | 35.44030 | 139.85366 | 2264 ft | 174 kts | 327° |
| 2026-02-21 22:18 | 35.45047 | 139.84649 | 2038 ft | 166 kts | 327° |
| 2026-02-21 22:18 | 35.45992 | 139.83983 | 1811 ft | 149 kts | 327° |
| 2026-02-21 22:19 | 35.46885 | 139.83351 | 1608 ft | 147 kts | 327° |
| 2026-02-21 22:19 | 35.47764 | 139.82728 | 1403 ft | 145 kts | 328° |
| 2026-02-21 22:19 | 35.48639 | 139.82107 | 1212 ft | 145 kts | 328° |
| 2026-02-21 22:19 | 35.49509 | 139.81501 | 1020 ft | 142 kts | 329° |
| 2026-02-21 22:20 | 35.50358 | 139.80898 | 812 ft | 140 kts | 330° |
| 2026-02-21 22:20 | 35.51186 | 139.80299 | 638 ft | 137 kts | 329° |
| 2026-02-21 22:20 | 35.52007 | 139.79708 | 461 ft | 136 kts | 332° |
| 2026-02-21 22:20 | 35.52824 | 139.79139 | 263 ft | 135 kts | 331° |
| 2026-02-21 22:21 | 35.53639 | 139.78571 | 62 ft | 134 kts | 333° |
| 2026-02-21 22:21 | 35.54365 | 139.78070 | 31 ft | 96 kts | 329° |
| 2026-02-21 22:21 | 35.54809 | 139.77752 | 30 ft | 54 kts | 331° |
| 2026-02-21 22:21 | 35.55070 | 139.77630 | 30 ft | 27 kts | 356° |
| 2026-02-21 22:22 | 35.55181 | 139.77672 | 29 ft | 15 kts | 56° |
| 2026-02-21 22:22 | 35.55162 | 139.77750 | 29 ft | 11 kts | 141° |
| 2026-02-21 22:22 | 35.55074 | 139.77818 | 29 ft | 20 kts | 150° |
| 2026-02-21 22:22 | 35.54929 | 139.77920 | 29 ft | 26 kts | 150° |
| 2026-02-21 22:23 | 35.54770 | 139.78032 | 29 ft | 27 kts | 150° |
| 2026-02-21 22:23 | 35.54608 | 139.78148 | 29 ft | 27 kts | 149° |
| 2026-02-21 22:23 | 35.54439 | 139.78268 | 29 ft | 28 kts | 150° |
| 2026-02-21 22:23 | 35.54266 | 139.78391 | 29 ft | 29 kts | 149° |
| 2026-02-21 22:24 | 35.54180 | 139.78525 | 30 ft | 17 kts | 76° |
| 2026-02-21 22:24 | 35.54236 | 139.78653 | 30 ft | 18 kts | 59° |
| 2026-02-21 22:24 | 35.54302 | 139.78789 | 28 ft | 19 kts | 59° |
| 2026-02-21 22:24 | 35.54371 | 139.78933 | 30 ft | 20 kts | 60° |
| 2026-02-21 22:25 | 35.54441 | 139.79084 | 30 ft | 21 kts | 60° |
| 2026-02-21 22:25 | 35.54516 | 139.79246 | 30 ft | 23 kts | 59° |
| 2026-02-21 22:25 | 35.54569 | 139.79405 | 30 ft | 12 kts | 110° |
| 2026-02-21 22:25 | 35.54505 | 139.79459 | 30 ft | 16 kts | 150° |
| 2026-02-21 22:26 | 35.54400 | 139.79532 | 30 ft | 13 kts | 149° |
| 2026-02-21 22:26 | 35.54378 | 139.79585 | 30 ft | 3 kts | 90° |
| 2026-02-21 22:26 | 35.54386 | 139.79619 | 29 ft | 4 kts | 66° |
| 2026-02-21 22:26 | 35.54392 | 139.79632 | 29 ft | 1 kts | 63° |
| 2026-02-21 22:27 | 35.54393 | 139.79635 | 30 ft | 0 kts | 63° |